createdAt,value
2023-01-12T00:00:13.368Z,88.50
2023-01-12T00:02:20.114Z,88.59
2023-01-12T00:04:25.028Z,88.57
2023-01-12T00:06:30.858Z,88.69
2023-01-12T00:08:35.686Z,89.27
2023-01-12T00:10:40.363Z,88.91
2023-01-12T00:12:45.129Z,88.94
2023-01-12T00:14:49.876Z,89.30
2023-01-12T00:16:54.715Z,89.19
2023-01-12T00:18:59.492Z,89.14
2023-01-12T00:21:04.462Z,89.08
2023-01-12T00:23:09.660Z,88.82
2023-01-12T00:25:14.650Z,88.95
2023-01-12T00:27:20.652Z,89.27
2023-01-12T00:29:26.236Z,88.86
2023-01-12T00:31:30.998Z,88.82
2023-01-12T00:33:35.985Z,89.01
2023-01-12T00:35:40.775Z,88.64
2023-01-12T00:37:45.485Z,88.50
2023-01-12T00:40:01.744Z,88.32
2023-01-12T00:42:07.079Z,88.75
2023-01-12T00:44:11.798Z,88.47
2023-01-12T00:46:16.531Z,88.17
2023-01-12T00:48:21.242Z,88.20
2023-01-12T00:50:25.907Z,88.07
2023-01-12T00:52:31.828Z,88.10
2023-01-12T00:54:37.277Z,87.89
2023-01-12T00:56:41.963Z,87.90
2023-01-12T00:58:46.854Z,88.00
2023-01-12T01:00:51.576Z,88.11
2023-01-12T01:02:56.392Z,88.05
2023-01-12T01:05:01.251Z,87.69
2023-01-12T01:07:06.247Z,87.63
2023-01-12T01:09:11.375Z,87.75
2023-01-12T01:11:16.540Z,87.75
2023-01-12T01:13:21.688Z,87.56
2023-01-12T01:15:26.502Z,87.48
2023-01-12T01:17:31.414Z,87.06
2023-01-12T01:19:36.124Z,86.95
2023-01-12T01:21:40.916Z,86.90
2023-01-12T01:23:45.951Z,87.09
2023-01-12T01:25:51.019Z,87.19
2023-01-12T01:27:56.003Z,87.05
2023-01-12T01:30:00.788Z,86.85
2023-01-12T01:32:06.251Z,87.11
2023-01-12T01:34:10.887Z,86.50
2023-01-12T01:36:16.509Z,87.21
2023-01-12T01:38:21.693Z,86.91
2023-01-12T01:40:26.413Z,86.82
2023-01-12T01:42:31.301Z,86.89
2023-01-12T01:44:58.198Z,86.83
2023-01-12T01:47:06.542Z,86.73
2023-01-12T01:49:24.886Z,86.40
2023-01-12T01:51:29.728Z,86.48
2023-01-12T01:53:37.947Z,86.36
2023-01-12T01:55:46.715Z,86.66
2023-01-12T01:57:56.659Z,86.44
2023-01-12T02:00:03.097Z,85.96
2023-01-12T02:02:14.940Z,86.36
2023-01-12T02:04:19.794Z,85.82
2023-01-12T02:06:27.347Z,85.96
2023-01-12T02:08:41.827Z,85.99
2023-01-12T02:10:46.926Z,85.71
2023-01-12T02:12:52.223Z,85.50
2023-01-12T02:14:56.987Z,85.81
2023-01-12T02:17:14.096Z,85.58
2023-01-12T02:19:39.750Z,85.34
2023-01-12T02:22:22.580Z,85.59
2023-01-12T02:24:53.359Z,85.07
2023-01-12T02:27:31.480Z,85.25
2023-01-12T02:30:14.850Z,85.11
2023-01-12T02:32:26.635Z,85.34
2023-01-12T02:34:37.454Z,85.12
2023-01-12T02:36:50.837Z,85.15
2023-01-12T02:39:04.600Z,85.01
2023-01-12T02:41:21.069Z,85.13
2023-01-12T02:43:29.038Z,85.23
2023-01-12T02:45:41.187Z,84.78
2023-01-12T02:47:51.452Z,84.78
2023-01-12T02:49:59.705Z,84.72
2023-01-12T02:52:09.354Z,84.83
2023-01-12T02:54:17.708Z,84.61
2023-01-12T02:56:25.281Z,84.44
2023-01-12T02:58:32.461Z,84.43
2023-01-12T03:00:40.681Z,84.64
2023-01-12T03:02:45.349Z,84.49
2023-01-12T03:04:50.176Z,84.52
2023-01-12T03:07:24.867Z,84.47
2023-01-12T03:09:35.447Z,84.58
2023-01-12T03:11:42.966Z,84.58
2023-01-12T03:13:51.052Z,84.68
2023-01-12T03:15:57.608Z,84.12
2023-01-12T03:18:09.069Z,84.59
2023-01-12T03:20:17.666Z,84.35
2023-01-12T03:22:24.140Z,84.63
2023-01-12T03:24:35.403Z,84.46
2023-01-12T03:26:43.736Z,84.42
2023-01-12T03:28:54.983Z,84.50
2023-01-12T03:31:03.564Z,84.55
2023-01-12T03:33:09.154Z,84.46
2023-01-12T03:35:14.408Z,84.45
2023-01-12T03:37:25.876Z,84.32
2023-01-12T03:39:37.600Z,84.42
2023-01-12T03:41:54.721Z,84.44
2023-01-12T03:44:04.881Z,84.76
2023-01-12T03:46:16.178Z,84.35
2023-01-12T03:48:26.599Z,84.26
2023-01-12T03:50:36.746Z,84.34
2023-01-12T03:52:43.555Z,84.12
2023-01-12T03:54:49.919Z,84.13
2023-01-12T03:56:55.234Z,84.20
2023-01-12T03:59:00.055Z,84.18
2023-01-12T04:01:05.859Z,84.12
2023-01-12T04:03:14.275Z,84.31
2023-01-12T04:05:19.025Z,84.18
2023-01-12T04:07:23.732Z,84.11
2023-01-12T04:09:28.536Z,83.94
2023-01-12T04:11:33.305Z,84.13
2023-01-12T04:13:37.964Z,84.02
2023-01-12T04:15:42.764Z,83.97
2023-01-12T04:17:47.561Z,83.87
2023-01-12T04:19:52.414Z,84.32
2023-01-12T04:21:57.188Z,84.12
2023-01-12T04:24:01.966Z,84.11
2023-01-12T04:26:06.986Z,84.24
2023-01-12T04:28:11.686Z,84.18
2023-01-12T04:30:18.749Z,84.35
2023-01-12T04:32:23.469Z,83.85
2023-01-12T04:34:28.252Z,84.11
2023-01-12T04:36:33.067Z,84.29
2023-01-12T04:38:38.261Z,84.05
2023-01-12T04:40:42.990Z,84.23
2023-01-12T04:42:51.597Z,84.10
2023-01-12T04:44:56.263Z,83.82
2023-01-12T04:47:00.988Z,83.94
2023-01-12T04:49:05.727Z,83.45
2023-01-12T04:51:10.469Z,83.35
2023-01-12T04:53:15.308Z,83.45
2023-01-12T04:55:21.662Z,82.98
2023-01-12T04:57:26.341Z,82.78
2023-01-12T04:59:31.732Z,83.10
2023-01-12T05:01:36.593Z,82.80
2023-01-12T05:03:41.477Z,82.62
2023-01-12T05:05:46.140Z,82.42
2023-01-12T05:07:50.759Z,82.48
2023-01-12T05:09:55.582Z,82.18
2023-01-12T05:12:01.513Z,82.00
2023-01-12T05:14:06.342Z,81.98
2023-01-12T05:16:16.388Z,81.83
2023-01-12T05:18:21.574Z,81.80
2023-01-12T05:20:26.304Z,80.82
2023-01-12T05:22:32.424Z,80.64
2023-01-12T05:24:37.285Z,80.55
2023-01-12T05:26:42.001Z,80.47
2023-01-12T05:28:49.177Z,80.26
2023-01-12T05:30:53.980Z,80.28
2023-01-12T05:32:58.793Z,79.95
2023-01-12T05:35:03.843Z,79.69
2023-01-12T05:37:08.563Z,78.74
2023-01-12T05:39:13.533Z,78.43
2023-01-12T05:41:18.287Z,78.39
2023-01-12T05:43:22.978Z,78.76
2023-01-12T05:45:27.951Z,78.20
2023-01-12T05:47:32.595Z,78.42
2023-01-12T05:49:37.327Z,78.10
2023-01-12T05:51:42.111Z,77.98
2023-01-12T05:53:47.161Z,78.19
2023-01-12T05:55:51.915Z,78.24
2023-01-12T05:57:56.835Z,78.79
2023-01-12T06:00:01.934Z,78.58
2023-01-12T06:02:16.993Z,78.89
2023-01-12T06:04:21.756Z,78.95
2023-01-12T06:06:28.576Z,79.26
2023-01-12T06:08:33.344Z,79.21
2023-01-12T06:10:38.128Z,79.51
2023-01-12T06:12:42.918Z,79.93
2023-01-12T06:14:47.649Z,80.05
2023-01-12T06:16:52.383Z,80.23
2023-01-12T06:19:01.096Z,80.12
2023-01-12T06:21:07.583Z,80.12
2023-01-12T06:23:12.219Z,80.34
2023-01-12T06:25:17.008Z,80.28
2023-01-12T06:27:21.826Z,80.37
2023-01-12T06:29:26.562Z,80.61
2023-01-12T06:31:31.241Z,80.86
2023-01-12T06:33:36.519Z,80.91
2023-01-12T06:35:47.509Z,81.06
2023-01-12T06:37:57.356Z,81.39
2023-01-12T06:40:02.145Z,81.67
2023-01-12T06:42:07.497Z,81.72
2023-01-12T06:44:12.327Z,81.74
2023-01-12T06:46:20.175Z,81.83
2023-01-12T06:48:25.320Z,81.95
2023-01-12T06:50:29.970Z,82.15
2023-01-12T06:52:34.780Z,82.27
2023-01-12T06:54:40.947Z,82.46
2023-01-12T06:56:45.644Z,82.53
2023-01-12T06:58:50.380Z,82.53
2023-01-12T07:01:00.177Z,82.65
2023-01-12T07:03:05.047Z,82.86
2023-01-12T07:05:10.631Z,83.08
2023-01-12T07:07:15.393Z,82.75
2023-01-12T07:09:20.104Z,82.99
2023-01-12T07:11:25.060Z,83.13
2023-01-12T07:13:30.538Z,83.16
2023-01-12T07:15:35.416Z,83.33
2023-01-12T07:17:40.468Z,83.24
2023-01-12T07:19:45.202Z,83.17
2023-01-12T07:21:50.929Z,83.21
2023-01-12T07:23:55.714Z,83.31
2023-01-12T07:26:00.583Z,83.21
2023-01-12T07:28:05.576Z,82.96
2023-01-12T07:30:12.422Z,82.93
2023-01-12T07:32:17.125Z,82.39
2023-01-12T07:34:22.157Z,81.93
2023-01-12T07:36:26.956Z,81.95
2023-01-12T07:38:34.057Z,81.98
2023-01-12T07:40:41.343Z,81.95
2023-01-12T07:42:46.182Z,81.79
2023-01-12T07:44:51.247Z,81.69
2023-01-12T07:46:56.117Z,81.17
2023-01-12T07:49:00.973Z,81.16
2023-01-12T07:51:06.079Z,80.91
2023-01-12T07:53:10.792Z,80.69
2023-01-12T07:55:15.738Z,80.32
2023-01-12T07:57:20.662Z,80.04
2023-01-12T07:59:25.476Z,79.03
2023-01-12T08:01:30.617Z,79.28
2023-01-12T08:03:35.576Z,78.57
2023-01-12T08:05:41.626Z,78.88
2023-01-12T08:07:46.407Z,77.91
2023-01-12T08:09:51.120Z,77.63
2023-01-12T08:11:55.849Z,78.11
2023-01-12T08:14:00.614Z,77.94
2023-01-12T08:16:11.931Z,77.48
2023-01-12T08:18:21.596Z,77.43
2023-01-12T08:20:32.101Z,77.38
2023-01-12T08:22:41.199Z,77.06
2023-01-12T08:24:50.524Z,76.67
2023-01-12T08:27:00.277Z,76.59
2023-01-12T08:29:12.905Z,76.44
2023-01-12T08:33:30.027Z,75.77
2023-01-12T08:35:37.606Z,75.42
2023-01-12T08:37:42.711Z,75.23
2023-01-12T08:39:47.782Z,75.13
2023-01-12T08:41:52.512Z,74.43
2023-01-12T08:43:57.275Z,74.33
2023-01-12T08:46:02.105Z,73.94
2023-01-12T08:48:07.260Z,73.02
2023-01-12T08:50:12.892Z,73.47
2023-01-12T08:52:17.974Z,73.29
2023-01-12T08:54:24.163Z,72.32
2023-01-12T08:56:29.421Z,71.88
2023-01-12T08:58:34.186Z,71.89
2023-01-12T09:00:39.039Z,72.17
2023-01-12T09:02:43.908Z,70.94
2023-01-12T09:04:48.601Z,70.34
2023-01-12T09:06:53.557Z,70.31
2023-01-12T09:09:00.963Z,70.14
2023-01-12T09:11:06.363Z,70.21
2023-01-12T09:13:11.092Z,70.08
2023-01-12T09:15:15.931Z,69.73
2023-01-12T09:17:20.652Z,68.28
2023-01-12T09:19:25.430Z,68.91
2023-01-12T09:21:31.506Z,68.69
2023-01-12T09:23:36.769Z,68.18
2023-01-12T09:25:41.510Z,67.79
2023-01-12T09:27:46.309Z,67.40
2023-01-12T09:29:50.975Z,66.60
2023-01-12T09:31:55.782Z,65.66
2023-01-12T09:34:01.097Z,65.95
2023-01-12T09:36:08.672Z,64.62
2023-01-12T09:38:17.682Z,64.26
2023-01-12T09:40:23.565Z,64.74
2023-01-12T09:42:28.428Z,63.55
2023-01-12T09:44:35.946Z,64.00
2023-01-12T09:46:43.859Z,63.58
2023-01-12T09:48:48.713Z,62.21
2023-01-12T09:50:58.753Z,62.40
2023-01-12T09:53:07.425Z,61.88
2023-01-12T09:55:16.919Z,61.07
2023-01-12T09:57:47.983Z,61.71
2023-01-12T10:00:02.032Z,62.39
2023-01-12T10:02:16.805Z,61.82
2023-01-12T10:04:22.625Z,61.32
2023-01-12T10:06:27.661Z,60.47
2023-01-12T10:08:36.677Z,60.80
2023-01-12T10:10:48.180Z,59.99
2023-01-12T10:12:59.161Z,59.58
2023-01-12T10:15:37.474Z,59.19
2023-01-12T10:17:51.568Z,59.19
2023-01-12T10:20:05.398Z,58.47
2023-01-12T10:22:18.751Z,58.45
2023-01-12T10:24:25.551Z,58.15
2023-01-12T10:26:37.860Z,58.40
2023-01-12T10:28:45.765Z,57.44
2023-01-12T10:30:50.959Z,57.05
2023-01-12T10:32:55.795Z,56.06
2023-01-12T10:35:00.558Z,56.54
2023-01-12T10:37:05.449Z,55.65
2023-01-12T10:39:30.467Z,55.25
2023-01-12T10:41:36.155Z,55.27
2023-01-12T10:43:42.038Z,55.64
2023-01-12T10:46:01.914Z,56.27
2023-01-12T10:48:20.868Z,55.68
2023-01-12T10:50:28.483Z,55.10
2023-01-12T10:52:40.111Z,54.58
2023-01-12T10:54:50.293Z,54.66
2023-01-12T10:57:02.988Z,54.22
2023-01-12T10:59:17.235Z,53.12
2023-01-12T11:01:22.721Z,53.09
2023-01-12T11:03:35.675Z,52.86
2023-01-12T11:05:40.884Z,53.61
2023-01-12T11:07:50.954Z,52.08
2023-01-12T11:09:56.635Z,52.63
2023-01-12T11:12:02.981Z,51.37
2023-01-12T11:14:22.687Z,51.74
2023-01-12T11:16:33.471Z,50.93
2023-01-12T11:18:44.215Z,51.10
2023-01-12T11:20:53.008Z,51.28
2023-01-12T11:23:01.142Z,50.94
2023-01-12T11:25:10.750Z,51.70
2023-01-12T11:27:22.317Z,51.48
2023-01-12T11:29:41.511Z,51.28
2023-01-12T11:31:48.511Z,51.69
2023-01-12T11:33:58.687Z,51.28
2023-01-12T11:36:08.371Z,50.36
2023-01-12T11:38:17.530Z,50.98
2023-01-12T11:40:30.678Z,50.69
2023-01-12T11:42:37.934Z,50.41
2023-01-12T11:44:50.298Z,49.87
2023-01-12T11:46:59.625Z,49.53
2023-01-12T11:49:11.665Z,48.47
2023-01-12T11:51:16.810Z,48.00
2023-01-12T11:53:24.764Z,48.11
2023-01-12T11:55:43.944Z,48.55
2023-01-12T11:58:02.183Z,47.92
2023-01-12T12:00:24.649Z,48.24
2023-01-12T12:02:36.066Z,47.45
2023-01-12T12:04:56.439Z,47.89
2023-01-12T12:07:20.698Z,47.65
2023-01-12T12:09:39.634Z,47.37
2023-01-12T12:11:51.848Z,46.43
2023-01-12T12:14:10.381Z,46.27
2023-01-12T12:16:27.220Z,46.31
2023-01-12T12:18:42.947Z,46.34
2023-01-12T12:21:03.801Z,46.37
2023-01-12T12:23:23.129Z,45.94
2023-01-12T12:25:38.091Z,46.21
2023-01-12T12:28:06.086Z,46.42
2023-01-12T12:30:38.667Z,46.26
2023-01-12T12:32:50.586Z,45.85
2023-01-12T12:35:06.368Z,46.09
2023-01-12T12:37:20.749Z,46.64
2023-01-12T12:39:49.398Z,46.34
2023-01-12T12:42:04.536Z,46.10
2023-01-12T12:44:26.069Z,45.76
2023-01-12T12:46:39.836Z,45.34
2023-01-12T12:48:54.021Z,45.23
2023-01-12T12:51:03.474Z,44.44
2023-01-12T12:53:19.979Z,44.88
2023-01-12T12:55:25.380Z,44.70
2023-01-12T12:57:30.159Z,44.98
2023-01-12T12:59:56.597Z,45.49
2023-01-12T13:02:02.841Z,45.47
2023-01-12T13:04:08.858Z,44.92
2023-01-12T13:06:19.770Z,44.17
2023-01-12T13:08:27.158Z,45.12
2023-01-12T13:10:33.680Z,45.35
2023-01-12T13:12:38.460Z,44.50
2023-01-12T13:14:44.337Z,43.64
2023-01-12T13:16:51.096Z,43.45
2023-01-12T13:19:11.725Z,43.11
2023-01-12T13:21:51.838Z,44.14
2023-01-12T13:24:19.137Z,44.18
2023-01-12T13:26:44.103Z,44.27
2023-01-12T13:28:49.241Z,42.87
2023-01-12T13:30:54.882Z,43.31
2023-01-12T13:33:01.414Z,43.98
2023-01-12T13:35:25.496Z,44.58
2023-01-12T13:37:38.652Z,44.05
2023-01-12T13:39:52.318Z,44.59
2023-01-12T13:41:57.364Z,44.39
2023-01-12T13:44:03.341Z,44.75
2023-01-12T13:46:16.113Z,44.40
2023-01-12T13:48:22.164Z,44.53
2023-01-12T13:50:28.465Z,44.77
2023-01-12T13:52:34.708Z,44.71
2023-01-12T13:54:50.118Z,44.66
2023-01-12T13:56:59.749Z,44.96
2023-01-12T13:59:06.866Z,44.12
2023-01-12T14:01:18.816Z,43.63
2023-01-12T14:03:37.011Z,44.39
2023-01-12T14:06:00.588Z,43.73
2023-01-12T14:08:23.045Z,43.35
2023-01-12T14:10:37.744Z,43.96
2023-01-12T14:13:00.250Z,44.29
2023-01-12T14:15:22.916Z,43.93
2023-01-12T14:17:29.904Z,44.04
2023-01-12T14:19:34.659Z,44.23
2023-01-12T14:21:39.624Z,44.47
2023-01-12T14:23:44.522Z,44.50
2023-01-12T14:26:05.410Z,44.53
2023-01-12T14:28:18.254Z,44.95
2023-01-12T14:30:25.082Z,45.09
2023-01-12T14:32:29.875Z,44.85
2023-01-12T14:34:37.302Z,44.86
2023-01-12T14:36:46.497Z,45.04
2023-01-12T14:38:52.277Z,45.05
2023-01-12T14:41:01.960Z,45.05
2023-01-12T14:43:06.789Z,45.03
2023-01-12T14:45:24.477Z,45.03
2023-01-12T14:47:33.871Z,45.05
2023-01-12T14:49:39.853Z,45.06
2023-01-12T14:51:53.351Z,45.24
2023-01-12T14:54:01.732Z,45.12
2023-01-12T14:56:15.241Z,45.12
2023-01-12T14:58:21.891Z,44.99
2023-01-12T15:00:29.984Z,45.12
2023-01-12T15:02:37.344Z,44.97
2023-01-12T15:04:52.772Z,45.06
2023-01-12T15:07:06.389Z,45.14
2023-01-12T15:09:26.452Z,45.35
2023-01-12T15:11:34.084Z,45.52
2023-01-12T15:13:39.327Z,45.54
2023-01-12T15:15:44.084Z,45.65
2023-01-12T15:17:50.107Z,45.37
2023-01-12T15:19:54.868Z,45.24
2023-01-12T15:22:00.301Z,45.49
2023-01-12T15:24:16.806Z,45.50
2023-01-12T15:26:22.572Z,45.52
2023-01-12T15:28:27.399Z,45.56
2023-01-12T15:30:35.444Z,45.43
2023-01-12T15:32:47.624Z,45.74
2023-01-12T15:34:53.003Z,45.64
2023-01-12T15:36:58.056Z,45.73
2023-01-12T15:39:02.877Z,45.67
2023-01-12T15:41:15.301Z,45.86
2023-01-12T15:43:20.050Z,45.86
2023-01-12T15:45:32.510Z,45.96
2023-01-12T15:47:37.218Z,46.13
2023-01-12T15:49:42.918Z,46.39
2023-01-12T15:51:49.597Z,46.48
2023-01-12T15:53:54.327Z,46.41
2023-01-12T15:55:59.308Z,46.45
2023-01-12T15:58:04.029Z,46.62
2023-01-12T16:00:13.970Z,46.51
2023-01-12T16:02:30.626Z,46.40
2023-01-12T16:04:42.841Z,46.37
2023-01-12T16:06:48.877Z,46.46
2023-01-12T16:08:53.613Z,46.35
2023-01-12T16:10:58.469Z,46.63
2023-01-12T16:13:07.727Z,46.63
2023-01-12T16:15:18.408Z,46.48
2023-01-12T16:17:23.333Z,46.39
2023-01-12T16:19:28.121Z,44.01
2023-01-12T16:21:34.143Z,43.97
2023-01-12T16:23:38.997Z,45.16
2023-01-12T16:25:43.913Z,45.54
2023-01-12T16:27:48.836Z,45.65
2023-01-12T16:29:53.784Z,45.91
2023-01-12T16:31:58.663Z,46.89
2023-01-12T16:34:04.163Z,48.20
2023-01-12T16:36:10.598Z,49.94
2023-01-12T16:38:16.964Z,51.55
2023-01-12T16:40:22.343Z,52.61
2023-01-12T16:42:27.430Z,53.31
2023-01-12T16:44:33.669Z,53.84
2023-01-12T16:46:38.389Z,54.24
2023-01-12T16:48:43.732Z,55.05
2023-01-12T16:50:48.609Z,55.95
2023-01-12T16:52:53.357Z,56.82
2023-01-12T16:54:58.052Z,57.35
2023-01-12T16:57:02.819Z,57.96
2023-01-12T16:59:07.648Z,58.47
2023-01-12T17:01:14.339Z,58.35
2023-01-12T17:03:19.424Z,59.10
2023-01-12T17:05:24.387Z,59.39
2023-01-12T17:07:29.833Z,60.01
2023-01-12T17:09:37.216Z,60.48
2023-01-12T17:11:42.592Z,61.27
2023-01-12T17:13:52.406Z,61.95
2023-01-12T17:15:57.541Z,62.48
2023-01-12T17:18:02.729Z,63.31
2023-01-12T17:20:09.269Z,63.84
2023-01-12T17:22:14.089Z,64.43
2023-01-12T17:24:19.207Z,64.75
2023-01-12T17:26:24.724Z,65.74
2023-01-12T17:28:29.546Z,66.38
2023-01-12T17:30:34.476Z,65.99
2023-01-12T17:32:39.390Z,66.31
2023-01-12T17:34:44.216Z,66.58
2023-01-12T17:36:49.213Z,67.13
2023-01-12T17:38:53.896Z,67.27
2023-01-12T17:40:58.859Z,67.25
2023-01-12T17:43:03.570Z,67.42
2023-01-12T17:45:09.769Z,67.35
2023-01-12T17:47:14.444Z,67.38
2023-01-12T17:49:19.169Z,67.75
2023-01-12T17:51:24.065Z,68.00
2023-01-12T17:53:28.823Z,67.66
2023-01-12T17:55:36.742Z,67.76
2023-01-12T17:57:41.738Z,67.76
2023-01-12T17:59:46.583Z,67.95
2023-01-12T18:01:52.124Z,67.98
2023-01-12T18:03:57.449Z,67.84
2023-01-12T18:06:04.751Z,68.13
2023-01-12T18:08:11.917Z,68.43
2023-01-12T18:10:16.953Z,68.37
2023-01-12T18:12:21.684Z,68.12
2023-01-12T18:14:26.487Z,68.72
2023-01-12T18:16:31.645Z,68.70
2023-01-12T18:18:36.793Z,68.27
2023-01-12T18:20:42.325Z,68.02
2023-01-12T18:22:47.283Z,68.00
2023-01-12T18:24:52.078Z,67.80
2023-01-12T18:26:57.214Z,67.37
2023-01-12T18:29:04.165Z,66.33
2023-01-12T18:31:12.069Z,66.66
2023-01-12T18:33:16.881Z,67.09
2023-01-12T18:35:21.725Z,67.26
2023-01-12T18:37:26.921Z,67.87
2023-01-12T18:39:32.025Z,68.20
2023-01-12T18:41:38.566Z,68.74
2023-01-12T18:43:43.709Z,68.75
2023-01-12T18:45:49.223Z,69.41
2023-01-12T18:47:54.229Z,69.53
2023-01-12T18:49:59.027Z,69.15
2023-01-12T18:52:05.796Z,69.21
2023-01-12T18:54:10.508Z,69.76
2023-01-12T18:56:15.777Z,70.39
2023-01-12T18:58:20.956Z,70.07
2023-01-12T19:00:27.355Z,71.00
2023-01-12T19:02:33.066Z,71.29
2023-01-12T19:04:42.782Z,71.74
2023-01-12T19:06:47.987Z,71.95
2023-01-12T19:08:53.538Z,72.31
2023-01-12T19:11:10.033Z,72.63
2023-01-12T19:13:16.296Z,73.32
2023-01-12T19:15:22.062Z,73.59
2023-01-12T19:17:27.243Z,74.16
2023-01-12T19:19:34.542Z,74.21
2023-01-12T19:21:39.499Z,73.99
2023-01-12T19:23:45.047Z,73.85
2023-01-12T19:25:50.480Z,73.60
2023-01-12T19:27:55.413Z,73.36
2023-01-12T19:30:00.905Z,73.86
2023-01-12T19:32:07.133Z,72.95
2023-01-12T19:34:12.734Z,72.79
2023-01-12T19:36:23.639Z,71.47
2023-01-12T19:38:28.880Z,70.36
2023-01-12T19:40:38.222Z,69.91
2023-01-12T19:42:44.476Z,69.40
2023-01-12T19:44:50.772Z,68.29
2023-01-12T19:46:55.995Z,67.92
2023-01-12T19:49:01.747Z,67.78
2023-01-12T19:51:10.848Z,67.41
2023-01-12T19:53:20.114Z,66.14
2023-01-12T19:55:25.421Z,65.98
2023-01-12T19:57:31.840Z,65.47
2023-01-12T19:59:37.197Z,65.07
2023-01-12T20:01:42.876Z,64.61
2023-01-12T20:03:49.139Z,63.91
2023-01-12T20:05:56.546Z,63.62
2023-01-12T20:08:01.591Z,63.45
2023-01-12T20:10:08.828Z,62.85
2023-01-12T20:12:16.448Z,62.61
2023-01-12T20:14:22.491Z,62.40
2023-01-12T20:16:28.239Z,62.28
2023-01-12T20:18:34.218Z,61.80
2023-01-12T20:20:42.361Z,61.42
2023-01-12T20:22:50.497Z,61.40
2023-01-12T20:24:55.589Z,61.06
2023-01-12T20:27:01.681Z,61.08
2023-01-12T20:29:08.095Z,60.74
2023-01-12T20:31:16.120Z,60.67
2023-01-12T20:33:22.240Z,61.74
2023-01-12T20:35:28.873Z,62.56
2023-01-12T20:37:34.843Z,63.95
2023-01-12T20:39:40.268Z,64.69
2023-01-12T20:41:46.730Z,65.45
2023-01-12T20:43:51.916Z,65.90
2023-01-12T20:45:57.350Z,66.68
2023-01-12T20:48:02.826Z,66.54
2023-01-12T20:50:09.670Z,66.47
2023-01-12T20:52:15.230Z,66.96
2023-01-12T20:54:20.715Z,66.91
2023-01-12T20:56:26.672Z,67.34
2023-01-12T20:58:32.369Z,67.10
2023-01-12T21:00:37.565Z,67.12
2023-01-12T21:02:42.541Z,67.46
2023-01-12T21:04:47.634Z,67.31
2023-01-12T21:06:52.910Z,67.76
2023-01-12T21:08:59.062Z,68.05
2023-01-12T21:11:04.102Z,67.72
2023-01-12T21:13:09.103Z,67.67
2023-01-12T21:15:13.844Z,67.74
2023-01-12T21:17:18.863Z,67.96
2023-01-12T21:19:23.595Z,67.84
2023-01-12T21:21:28.336Z,68.03
2023-01-12T21:23:33.243Z,68.21
2023-01-12T21:25:42.106Z,67.57
2023-01-12T21:27:46.841Z,67.79
2023-01-12T21:29:51.603Z,67.75
2023-01-12T21:31:56.463Z,67.46
2023-01-12T21:34:01.711Z,67.97
2023-01-12T21:36:07.563Z,67.97
2023-01-12T21:38:12.272Z,67.64
2023-01-12T21:40:17.679Z,67.87
2023-01-12T21:42:22.374Z,68.05
2023-01-12T21:44:27.069Z,68.19
2023-01-12T21:46:31.803Z,68.30
2023-01-12T21:48:36.820Z,68.20
2023-01-12T21:50:42.177Z,68.38
2023-01-12T21:52:47.248Z,68.58
2023-01-12T21:54:51.924Z,68.74
2023-01-12T21:56:56.660Z,68.73
2023-01-12T21:59:01.383Z,69.10
2023-01-12T22:01:11.622Z,68.78
2023-01-12T22:03:16.730Z,69.15
2023-01-12T22:05:21.693Z,69.38
2023-01-12T22:07:28.963Z,69.41
2023-01-12T22:09:33.786Z,69.63
2023-01-12T22:11:38.489Z,69.66
2023-01-12T22:13:43.850Z,69.70
2023-01-12T22:15:48.788Z,69.83
2023-01-12T22:17:54.570Z,69.89
2023-01-12T22:19:59.377Z,69.95
2023-01-12T22:22:04.046Z,70.19
2023-01-12T22:24:09.388Z,70.04
2023-01-12T22:26:15.187Z,69.90
2023-01-12T22:28:20.161Z,69.91
2023-01-12T22:30:25.804Z,69.80
2023-01-12T22:32:30.992Z,69.64
2023-01-12T22:34:35.740Z,69.86
2023-01-12T22:36:40.614Z,69.95
2023-01-12T22:38:45.432Z,69.79
2023-01-12T22:40:50.177Z,69.97
2023-01-12T22:42:54.813Z,69.86
2023-01-12T22:44:59.501Z,70.00
2023-01-12T22:47:04.245Z,70.17
2023-01-12T22:49:11.032Z,69.91
2023-01-12T22:51:15.947Z,69.85
2023-01-12T22:53:20.825Z,69.87
2023-01-12T22:55:26.147Z,69.96
2023-01-12T22:57:30.811Z,69.81
2023-01-12T22:59:35.496Z,69.75
2023-01-12T23:01:41.117Z,69.97
2023-01-12T23:03:46.100Z,69.98
2023-01-12T23:05:51.758Z,69.41
2023-01-12T23:07:56.735Z,68.94
2023-01-12T23:10:01.668Z,68.57
2023-01-12T23:12:07.070Z,68.30
2023-01-12T23:14:11.959Z,67.86
2023-01-12T23:16:18.854Z,67.81
2023-01-12T23:18:26.239Z,67.65
2023-01-12T23:20:32.785Z,67.35
2023-01-12T23:22:37.564Z,66.78
2023-01-12T23:24:42.407Z,66.86
2023-01-12T23:26:47.165Z,66.72
2023-01-12T23:28:54.106Z,66.52
2023-01-12T23:31:06.240Z,66.06
2023-01-12T23:33:11.775Z,65.68
2023-01-12T23:35:17.595Z,65.05
2023-01-12T23:37:22.350Z,64.69
2023-01-12T23:39:27.243Z,65.11
2023-01-12T23:41:33.469Z,65.17
2023-01-12T23:43:38.291Z,65.46
2023-01-12T23:45:43.124Z,65.81
2023-01-12T23:47:47.962Z,66.03
2023-01-12T23:49:52.862Z,66.22
2023-01-12T23:51:57.659Z,65.99
2023-01-12T23:54:03.151Z,66.35
2023-01-12T23:56:09.772Z,66.26
2023-01-12T23:58:14.598Z,66.32
